Time;durP1;ratioP1;P1;durP2;ratioP2;P2;SDS_P1;SDS_P2;PMS_P1;PMS_P2;Temp;Humidity;BMP_temperature;BMP_pressure;BME280_temperature;BME280_humidity;BME280_pressure;Samples;Min_cycle;Max_cycle;Signal;HPM_P1;HPM_P2
2023/10/24 00:00:32;;;;;;;27.80;20.42;;;11.00;99.90;;;;;;5029319;28;20033;-56
2023/10/24 00:02:57;;;;;;;32.00;22.63;;;11.00;99.90;;;;;;5054293;28;20064;-56
2023/10/24 00:05:23;;;;;;;31.50;20.50;;;11.00;99.90;;;;;;5053567;28;20147;-56
2023/10/24 00:07:49;;;;;;;32.58;22.00;;;11.00;99.90;;;;;;5054635;28;20874;-54
2023/10/24 00:10:16;;;;;;;35.35;22.35;;;11.00;99.90;;;;;;5054783;28;20049;-55
2023/10/24 00:12:41;;;;;;;34.20;22.80;;;10.90;99.90;;;;;;5049166;28;20787;-56
2023/10/24 00:15:07;;;;;;;37.37;21.37;;;11.00;99.90;;;;;;5055358;28;20037;-53
2023/10/24 00:17:33;;;;;;;34.50;20.77;;;10.90;99.90;;;;;;5054514;28;20284;-56
2023/10/24 00:19:58;;;;;;;30.43;22.30;;;10.90;99.90;;;;;;5056165;28;20274;-58
2023/10/24 00:22:24;;;;;;;31.30;20.93;;;10.90;99.90;;;;;;5054480;28;20283;-56
2023/10/24 00:24:49;;;;;;;35.67;21.87;;;11.00;99.90;;;;;;5035098;28;20279;-55
2023/10/24 00:27:15;;;;;;;33.37;23.20;;;11.00;99.90;;;;;;5036567;28;20037;-53
2023/10/24 00:29:41;;;;;;;36.57;21.63;;;10.90;99.90;;;;;;5050856;28;20271;-57
2023/10/24 00:32:06;;;;;;;32.70;21.38;;;10.90;99.90;;;;;;5051093;28;20052;-57
2023/10/24 00:34:32;;;;;;;30.70;21.15;;;10.90;99.90;;;;;;5050696;28;20419;-55
2023/10/24 00:36:57;;;;;;;36.13;21.77;;;10.90;99.90;;;;;;5035669;28;20040;-55
2023/10/24 00:39:23;;;;;;;35.33;23.13;;;10.90;99.90;;;;;;5053427;28;20108;-56
2023/10/24 00:41:49;;;;;;;37.37;22.17;;;10.90;99.90;;;;;;5052244;28;20029;-57
2023/10/24 00:44:14;;;;;;;32.00;20.93;;;11.00;99.90;;;;;;5054193;28;20283;-53
2023/10/24 00:46:41;;;;;;;31.52;21.10;;;10.90;99.90;;;;;;5052329;28;20048;-56
2023/10/24 00:49:07;;;;;;;;;;;11.00;99.90;;;;;;5053478;28;20422;-55
2023/10/24 00:51:33;;;;;;;34.40;21.63;;;10.90;99.90;;;;;;5054479;28;19934;-54
2023/10/24 00:54:01;;;;;;;31.73;20.88;;;10.90;99.90;;;;;;5038995;28;20029;-56
2023/10/24 00:56:29;;;;;;;31.25;21.15;;;11.00;99.90;;;;;;5034765;28;20028;-56
2023/10/24 00:58:55;;;;;;;35.20;21.80;;;11.00;99.90;;;;;;5051386;28;20411;-57
2023/10/24 01:01:21;;;;;;;;;;;11.00;99.90;;;;;;5030107;28;20037;-57
2023/10/24 01:03:49;;;;;;;33.78;20.55;;;11.00;99.90;;;;;;5048543;28;19917;-57
2023/10/24 01:06:15;;;;;;;30.48;21.35;;;11.00;99.90;;;;;;5052262;28;20041;-57
2023/10/24 01:08:41;;;;;;;31.13;20.02;;;11.00;99.90;;;;;;5041442;28;20430;-56
2023/10/24 01:11:07;;;;;;;33.72;21.55;;;11.00;99.90;;;;;;5023864;28;20189;-55
2023/10/24 01:13:34;;;;;;;30.30;20.55;;;11.00;99.90;;;;;;5047332;28;20140;-54
2023/10/24 01:15:59;;;;;;;31.02;20.92;;;11.00;99.90;;;;;;5049924;28;20029;-53
2023/10/24 01:18:25;;;;;;;29.60;20.10;;;11.00;99.90;;;;;;5053011;28;20047;-57
2023/10/24 01:20:50;;;;;;;25.23;18.87;;;11.00;99.90;;;;;;5051427;28;20036;-54
2023/10/24 01:23:16;;;;;;;27.17;20.10;;;11.00;99.90;;;;;;5054329;28;20068;-56
2023/10/24 01:25:42;;;;;;;28.15;20.73;;;11.00;99.90;;;;;;5053393;28;20079;-52
2023/10/24 01:28:09;;;;;;;26.60;20.00;;;11.00;99.90;;;;;;5057136;28;20691;-54
2023/10/24 01:30:35;;;;;;;;;;;11.00;99.90;;;;;;5055310;28;20036;-54
2023/10/24 01:33:01;;;;;;;28.00;19.08;;;11.00;99.90;;;;;;5052118;28;20306;-53
2023/10/24 01:35:27;;;;;;;30.88;19.55;;;11.00;99.90;;;;;;5034781;28;20044;-56
2023/10/24 01:37:52;;;;;;;28.95;19.80;;;11.00;99.90;;;;;;5053074;28;20388;-53
2023/10/24 01:40:18;;;;;;;30.33;21.50;;;11.00;99.90;;;;;;5049937;28;20078;-54
2023/10/24 01:42:44;;;;;;;33.40;21.40;;;11.10;99.90;;;;;;5048950;28;20380;-53
2023/10/24 01:45:10;;;;;;;34.42;21.67;;;11.00;99.90;;;;;;5052552;28;20044;-52
2023/10/24 01:47:35;;;;;;;31.33;21.50;;;11.00;99.90;;;;;;5046816;28;20044;-54
2023/10/24 01:50:02;;;;;;;31.17;21.63;;;11.00;99.90;;;;;;5056172;28;20521;-55
2023/10/24 01:52:28;;;;;;;30.33;20.85;;;11.00;99.90;;;;;;5055452;28;20291;-55
2023/10/24 01:54:53;;;;;;;32.83;21.85;;;11.00;99.90;;;;;;5038614;28;20399;-53
2023/10/24 01:57:19;;;;;;;31.52;22.13;;;11.00;99.90;;;;;;5056510;28;20094;-51
2023/10/24 01:59:44;;;;;;;33.35;20.67;;;11.00;99.90;;;;;;5041779;28;20033;-56
2023/10/24 02:02:10;;;;;;;32.38;21.92;;;11.00;99.90;;;;;;5062689;28;20079;-55
2023/10/24 02:04:36;;;;;;;33.80;22.20;;;11.10;99.90;;;;;;5053759;28;20753;-54
2023/10/24 02:07:01;;;;;;;36.28;21.40;;;11.10;99.90;;;;;;5040577;28;20063;-56
2023/10/24 02:09:29;;;;;;;30.08;21.92;;;11.10;99.90;;;;;;5057841;28;20051;-56
2023/10/24 02:11:58;;;;;;;30.27;21.95;;;11.10;99.90;;;;;;5056646;28;20410;-55
2023/10/24 02:14:24;;;;;;;33.97;22.15;;;11.10;99.90;;;;;;5055014;28;20037;-55
2023/10/24 02:16:49;;;;;;;32.38;21.85;;;11.10;99.90;;;;;;5055348;28;20040;-54
2023/10/24 02:19:15;;;;;;;38.63;23.77;;;11.10;99.90;;;;;;5045423;28;20395;-54
2023/10/24 02:21:41;;;;;;;35.25;22.38;;;11.10;99.90;;;;;;5055498;28;20781;-56
2023/10/24 02:24:06;;;;;;;39.72;23.35;;;11.10;99.90;;;;;;5056326;28;20048;-56
2023/10/24 02:26:32;;;;;;;34.90;22.75;;;11.10;99.90;;;;;;5054152;28;20041;-55
2023/10/24 02:28:58;;;;;;;38.03;22.88;;;11.10;99.90;;;;;;5055601;28;20139;-53
2023/10/24 02:31:23;;;;;;;27.85;20.45;;;11.10;99.90;;;;;;5056583;28;20119;-55
2023/10/24 02:33:49;;;;;;;37.17;21.27;;;11.10;99.90;;;;;;5056426;28;20483;-56
2023/10/24 02:36:15;;;;;;;35.75;23.27;;;11.10;99.90;;;;;;5056520;28;20025;-56
2023/10/24 02:38:42;;;;;;;36.92;22.42;;;11.10;99.90;;;;;;5056260;28;20033;-55
2023/10/24 02:41:08;;;;;;;38.28;24.65;;;11.20;99.90;;;;;;5042649;28;20040;-56
2023/10/24 02:43:34;;;;;;;41.13;22.40;;;11.10;99.90;;;;;;5054833;28;20047;-55
2023/10/24 02:46:03;;;;;;;41.63;23.52;;;11.10;99.90;;;;;;5054143;28;20308;-53
2023/10/24 02:48:29;;;;;;;40.42;23.63;;;11.10;99.90;;;;;;5055822;28;20060;-57
2023/10/24 02:50:55;;;;;;;34.25;21.75;;;11.10;99.90;;;;;;5055168;28;20111;-53
2023/10/24 02:53:21;;;;;;;;;;;11.10;99.90;;;;;;5054020;28;20138;-53
2023/10/24 02:55:47;;;;;;;35.35;21.25;;;11.10;99.90;;;;;;5054835;28;20007;-54
2023/10/24 02:58:13;;;;;;;34.67;21.00;;;11.10;99.90;;;;;;5034115;28;20036;-52
2023/10/24 03:00:39;;;;;;;34.28;20.58;;;11.20;99.90;;;;;;5052060;28;20056;-54
2023/10/24 03:03:05;;;;;;;32.70;20.88;;;11.20;99.90;;;;;;5043751;28;20049;-55
2023/10/24 03:05:31;;;;;;;37.60;20.95;;;11.20;99.90;;;;;;5051724;28;20044;-56
2023/10/24 03:07:57;;;;;;;30.45;20.00;;;11.30;99.90;;;;;;5052300;28;20047;-54
2023/10/24 03:10:25;;;;;;;31.25;19.98;;;11.30;99.90;;;;;;5053722;28;20118;-55
2023/10/24 03:12:54;;;;;;;31.60;19.88;;;11.30;99.90;;;;;;5047349;28;20057;-57
2023/10/24 03:15:20;;;;;;;33.50;21.23;;;11.30;99.90;;;;;;5052677;28;20036;-53
2023/10/24 03:17:46;;;;;;;32.78;19.73;;;11.30;99.90;;;;;;5051042;28;20049;-55
2023/10/24 03:20:12;;;;;;;33.25;20.55;;;11.30;99.90;;;;;;5052329;28;20033;-55
2023/10/24 03:22:38;;;;;;;24.85;18.60;;;11.40;99.90;;;;;;5052893;28;20043;-54
2023/10/24 03:25:04;;;;;;;33.00;20.00;;;11.40;99.90;;;;;;5052683;28;20033;-57
2023/10/24 03:27:29;;;;;;;28.23;18.02;;;11.40;99.90;;;;;;5054373;28;20108;-56
2023/10/24 03:29:56;;;;;;;24.87;18.03;;;11.40;99.90;;;;;;5045549;28;20123;-54
2023/10/24 03:32:21;;;;;;;27.13;18.25;;;11.40;99.90;;;;;;5052374;28;20298;-53
2023/10/24 03:34:47;;;;;;;28.25;17.92;;;11.40;99.90;;;;;;5053886;28;20212;-56
2023/10/24 03:37:13;;;;;;;29.63;19.17;;;11.40;99.90;;;;;;5050174;28;20499;-54
2023/10/24 03:39:38;;;;;;;27.20;18.53;;;11.50;99.90;;;;;;5052404;28;20045;-57
2023/10/24 03:42:04;;;;;;;38.65;20.55;;;11.50;99.90;;;;;;5050641;28;20294;-55
2023/10/24 03:44:30;;;;;;;28.52;21.35;;;11.50;99.90;;;;;;5019154;28;20036;-56
2023/10/24 03:46:55;;;;;;;33.83;20.75;;;11.50;99.90;;;;;;5053919;28;20056;-56
2023/10/24 03:49:21;;;;;;;34.00;21.67;;;11.50;99.90;;;;;;5038571;28;20033;-57
2023/10/24 03:51:47;;;;;;;31.88;22.10;;;11.50;99.90;;;;;;5052536;28;20494;-55
2023/10/24 03:54:13;;;;;;;29.98;20.70;;;11.60;99.90;;;;;;5053554;28;20074;-57
2023/10/24 03:56:41;;;;;;;26.67;19.05;;;11.60;99.90;;;;;;5052735;28;20044;-57
2023/10/24 03:59:08;;;;;;;24.67;18.95;;;11.60;99.90;;;;;;5055148;28;20033;-54
2023/10/24 04:01:36;;;;;;;23.65;18.33;;;11.60;99.90;;;;;;5044168;28;20090;-56
2023/10/24 04:04:02;;;;;;;22.55;17.17;;;11.70;99.90;;;;;;5035346;28;20063;-55
2023/10/24 04:06:27;;;;;;;17.38;13.43;;;11.60;99.90;;;;;;5034394;28;20495;-54
2023/10/24 04:08:53;;;;;;;15.05;13.15;;;11.70;99.90;;;;;;5050534;28;20721;-56
2023/10/24 04:11:19;;;;;;;11.70;10.57;;;11.70;99.90;;;;;;5050619;28;20503;-54
2023/10/24 04:13:46;;;;;;;12.02;10.77;;;11.70;99.90;;;;;;5049802;28;20045;-52
2023/10/24 04:16:13;;;;;;;19.00;12.07;;;11.70;99.90;;;;;;5050649;28;20079;-56
2023/10/24 04:18:39;;;;;;;12.50;10.77;;;11.70;99.90;;;;;;5046251;28;20068;-56
2023/10/24 04:21:05;;;;;;;13.68;10.90;;;11.80;99.90;;;;;;5054130;28;20042;-54
2023/10/24 04:23:32;;;;;;;19.98;11.65;;;11.80;99.90;;;;;;5054519;28;20222;-57
2023/10/24 04:25:58;;;;;;;13.38;11.98;;;11.80;99.90;;;;;;5053638;28;20060;-57
2023/10/24 04:28:23;;;;;;;13.50;11.03;;;11.80;99.90;;;;;;5043422;28;20067;-55
2023/10/24 04:30:51;;;;;;;14.13;12.07;;;11.80;99.90;;;;;;5051641;28;20048;-57
2023/10/24 04:33:17;;;;;;;11.52;9.88;;;11.80;99.90;;;;;;5058536;28;20511;-57
2023/10/24 04:35:47;;;;;;;13.85;10.60;;;11.80;99.90;;;;;;5056322;28;20060;-56
2023/10/24 04:38:13;;;;;;;12.30;10.75;;;11.80;99.90;;;;;;5053115;28;20079;-57
2023/10/24 04:40:39;;;;;;;;;;;11.80;99.90;;;;;;5051398;28;20116;-53
2023/10/24 04:43:05;;;;;;;10.13;9.10;;;11.90;99.90;;;;;;5033303;28;19932;-52
2023/10/24 04:45:31;;;;;;;;;;;11.90;99.90;;;;;;5052579;28;20036;-56
2023/10/24 04:47:58;;;;;;;11.68;8.70;;;11.90;99.90;;;;;;5051246;28;19931;-56
2023/10/24 04:50:24;;;;;;;11.45;9.45;;;11.90;99.90;;;;;;5050734;28;20039;-55
2023/10/24 04:52:50;;;;;;;9.55;8.65;;;11.90;99.90;;;;;;5032824;28;20132;-55
2023/10/24 04:55:16;;;;;;;10.90;9.02;;;11.90;99.90;;;;;;5052449;28;20056;-53
2023/10/24 04:57:42;;;;;;;10.90;9.50;;;11.90;99.90;;;;;;5051926;28;20037;-54
2023/10/24 05:00:12;;;;;;;12.50;8.82;;;11.90;99.90;;;;;;5053242;28;20040;-55
2023/10/24 05:02:38;;;;;;;10.00;8.88;;;11.90;99.90;;;;;;5052514;28;20045;-57
2023/10/24 05:05:05;;;;;;;10.23;8.57;;;11.90;99.90;;;;;;5053696;28;20708;-54
2023/10/24 05:07:31;;;;;;;10.73;9.02;;;11.90;99.90;;;;;;5045818;28;20230;-57
2023/10/24 05:09:56;;;;;;;10.50;9.37;;;12.00;99.90;;;;;;5050167;28;20043;-56
2023/10/24 05:12:22;;;;;;;10.85;8.98;;;12.00;99.90;;;;;;5054246;28;20425;-52
2023/10/24 05:14:48;;;;;;;11.75;9.35;;;12.00;99.90;;;;;;5035631;28;20053;-57
2023/10/24 05:17:14;;;;;;;11.27;8.93;;;11.90;99.90;;;;;;5031586;28;20031;-57
2023/10/24 05:19:41;;;;;;;11.50;7.43;;;11.90;99.90;;;;;;5025444;28;20047;-57
2023/10/24 05:22:08;;;;;;;10.20;8.00;;;11.90;99.90;;;;;;5052501;28;20508;-56
2023/10/24 05:24:34;;;;;;;13.18;8.50;;;11.90;99.90;;;;;;5050605;28;20568;-56
2023/10/24 05:26:59;;;;;;;8.93;7.75;;;11.90;99.90;;;;;;5056643;28;20080;-53
2023/10/24 05:29:25;;;;;;;10.45;8.88;;;11.90;99.90;;;;;;5056441;28;20115;-56
2023/10/24 05:31:51;;;;;;;12.40;8.50;;;11.90;99.90;;;;;;5039723;28;20033;-57
2023/10/24 05:34:16;;;;;;;9.07;8.18;;;11.80;99.90;;;;;;5051218;28;20088;-57
2023/10/24 05:36:42;;;;;;;8.57;7.68;;;11.90;99.90;;;;;;5048909;28;20515;-57
2023/10/24 05:39:07;;;;;;;9.25;7.85;;;11.80;99.90;;;;;;5060081;28;20387;-56
2023/10/24 05:41:33;;;;;;;9.70;7.43;;;11.80;99.90;;;;;;5057682;28;20402;-55
2023/10/24 05:43:59;;;;;;;11.07;8.27;;;11.80;99.90;;;;;;5046105;28;20041;-54
2023/10/24 05:46:24;;;;;;;8.43;7.25;;;11.80;99.90;;;;;;5041982;28;20041;-57
2023/10/24 05:48:50;;;;;;;13.87;7.53;;;11.80;99.90;;;;;;5043689;28;20087;-56
2023/10/24 05:51:23;;;;;;;8.85;7.13;;;11.80;99.90;;;;;;5058379;28;20275;-56
2023/10/24 05:53:50;;;;;;;8.10;6.35;;;11.80;99.90;;;;;;5055629;28;20037;-53
2023/10/24 05:56:16;;;;;;;6.60;6.00;;;11.80;99.90;;;;;;5050744;28;20137;-52
2023/10/24 05:58:41;;;;;;;6.70;6.03;;;11.90;99.90;;;;;;5057032;28;20153;-53
2023/10/24 06:01:08;;;;;;;6.97;6.28;;;11.80;99.90;;;;;;5052461;28;20568;-54
2023/10/24 06:03:33;;;;;;;6.50;5.50;;;11.80;99.90;;;;;;5039479;28;20056;-57
2023/10/24 06:05:59;;;;;;;8.45;6.05;;;11.90;99.90;;;;;;5061951;28;20032;-55
2023/10/24 06:08:25;;;;;;;7.38;5.85;;;11.80;99.90;;;;;;5061774;28;20043;-56
2023/10/24 06:11:02;;;;;;;6.50;5.87;;;11.80;99.90;;;;;;5066763;28;20148;-56
2023/10/24 06:13:28;;;;;;;6.03;5.53;;;11.80;99.90;;;;;;5064503;28;20334;-56
2023/10/24 06:15:54;;;;;;;5.85;5.35;;;11.80;99.90;;;;;;5055468;28;20112;-57
2023/10/24 06:18:20;;;;;;;7.03;5.40;;;11.80;99.90;;;;;;5042491;28;20124;-57
2023/10/24 06:20:47;;;;;;;6.97;5.80;;;11.80;99.90;;;;;;5063451;28;20036;-55
2023/10/24 06:23:13;;;;;;;7.15;5.70;;;11.80;99.90;;;;;;5066177;28;20032;-57
2023/10/24 06:25:40;;;;;;;6.93;5.55;;;11.80;99.90;;;;;;5069950;28;20055;-57
2023/10/24 06:28:07;;;;;;;8.93;5.95;;;11.80;99.90;;;;;;5070792;28;20454;-55
2023/10/24 06:30:33;;;;;;;10.75;5.57;;;11.80;99.90;;;;;;5071595;28;20119;-57
2023/10/24 06:32:59;;;;;;;7.28;6.55;;;11.80;99.90;;;;;;5071442;28;20041;-57
2023/10/24 06:35:25;;;;;;;6.75;6.18;;;11.80;99.90;;;;;;5070550;28;20043;-57
2023/10/24 06:37:51;;;;;;;7.20;5.67;;;11.80;99.90;;;;;;5072110;28;20032;-57
2023/10/24 06:40:17;;;;;;;10.93;6.15;;;11.80;99.90;;;;;;5069018;28;20309;-57
2023/10/24 06:42:43;;;;;;;7.00;6.40;;;11.80;99.90;;;;;;5061553;28;20033;-57
2023/10/24 06:45:10;;;;;;;7.93;6.13;;;11.80;99.90;;;;;;5070909;28;20075;-57
2023/10/24 06:47:37;;;;;;;10.52;6.25;;;11.80;99.90;;;;;;5066049;28;20089;-56
2023/10/24 06:50:03;;;;;;;8.18;6.32;;;11.80;99.90;;;;;;5059043;28;20276;-57
2023/10/24 06:52:29;;;;;;;8.20;6.70;;;11.80;99.90;;;;;;5067321;28;20108;-57
2023/10/24 06:54:55;;;;;;;6.40;5.65;;;11.80;99.90;;;;;;5057375;28;20143;-57
2023/10/24 06:57:20;;;;;;;7.38;6.60;;;11.80;99.90;;;;;;5055249;28;20040;-58
2023/10/24 06:59:46;;;;;;;8.40;6.47;;;11.80;99.90;;;;;;5035344;28;20035;-57
2023/10/24 07:02:11;;;;;;;7.97;6.87;;;11.80;99.90;;;;;;5056247;28;20294;-57
2023/10/24 07:04:37;;;;;;;7.28;6.53;;;11.80;99.90;;;;;;5056406;28;20041;-55
2023/10/24 07:07:03;;;;;;;8.13;6.17;;;11.80;99.90;;;;;;5062420;28;20040;-52
2023/10/24 07:09:29;;;;;;;8.88;6.28;;;11.80;99.90;;;;;;5054480;28;20298;-55
2023/10/24 07:11:54;;;;;;;6.70;6.10;;;11.80;99.90;;;;;;5050546;28;20084;-54
2023/10/24 07:14:20;;;;;;;8.23;6.57;;;11.80;99.90;;;;;;5051082;28;20098;-49
2023/10/24 07:16:46;;;;;;;6.82;6.22;;;11.80;99.90;;;;;;5045960;28;20288;-53
2023/10/24 07:19:13;;;;;;;7.03;6.40;;;11.80;99.90;;;;;;5052364;28;20036;-52
2023/10/24 07:21:39;;;;;;;7.55;5.47;;;11.80;99.90;;;;;;5054609;28;20280;-54
2023/10/24 07:24:05;;;;;;;7.20;6.55;;;11.70;99.90;;;;;;5042375;28;20403;-56
2023/10/24 07:26:31;;;;;;;6.78;6.07;;;11.70;99.90;;;;;;5059660;28;20400;-56
2023/10/24 07:28:56;;;;;;;7.63;6.70;;;11.80;99.90;;;;;;5028294;28;20129;-56
2023/10/24 07:31:22;;;;;;;7.90;7.10;;;11.80;99.90;;;;;;5052474;28;20047;-56
2023/10/24 07:33:48;;;;;;;8.37;6.77;;;11.70;99.90;;;;;;5040902;28;20124;-54
2023/10/24 07:36:15;;;;;;;;;;;11.80;99.90;;;;;;5045993;28;20328;-54
2023/10/24 07:38:40;;;;;;;7.85;6.47;;;11.70;99.90;;;;;;5029486;28;19920;-54
2023/10/24 07:41:06;;;;;;;8.35;7.50;;;11.70;99.90;;;;;;5050530;28;20067;-54
2023/10/24 07:43:32;;;;;;;7.75;6.03;;;11.80;99.90;;;;;;5046127;28;20466;-55
2023/10/24 07:45:58;;;;;;;7.97;6.90;;;11.80;99.90;;;;;;5046600;28;20461;-55
2023/10/24 07:48:24;;;;;;;10.45;8.23;;;11.70;99.90;;;;;;5031884;28;20045;-56
2023/10/24 07:50:54;;;;;;;8.80;7.72;;;11.80;99.90;;;;;;5048735;28;20121;-56
2023/10/24 07:53:20;;;;;;;10.07;7.78;;;11.80;99.90;;;;;;5043447;28;20044;-55
2023/10/24 07:55:46;;;;;;;9.48;7.82;;;11.70;99.90;;;;;;5029552;28;20033;-56
2023/10/24 07:58:12;;;;;;;9.65;7.55;;;11.70;99.90;;;;;;5027700;28;20032;-56
2023/10/24 08:00:38;;;;;;;9.10;7.75;;;11.80;99.90;;;;;;5027678;28;20083;-55
2023/10/24 08:03:04;;;;;;;12.82;8.13;;;11.80;99.90;;;;;;5048821;28;20503;-54
2023/10/24 08:05:29;;;;;;;9.23;7.63;;;11.70;99.90;;;;;;5047259;28;20116;-56
2023/10/24 08:07:55;;;;;;;8.77;7.13;;;11.80;99.90;;;;;;5047230;28;21579;-56
2023/10/24 08:10:20;;;;;;;10.13;9.15;;;11.80;99.90;;;;;;5039633;28;20044;-56
2023/10/24 08:12:46;;;;;;;10.90;8.57;;;11.70;99.90;;;;;;5019236;28;20048;-55
2023/10/24 08:15:12;;;;;;;9.80;7.73;;;11.70;99.90;;;;;;5045377;28;20044;-56
2023/10/24 08:17:37;;;;;;;9.18;7.93;;;11.70;99.90;;;;;;5029716;28;20314;-56
2023/10/24 08:20:06;;;;;;;8.65;7.78;;;11.70;99.90;;;;;;5044863;28;20071;-57
2023/10/24 08:22:32;;;;;;;9.40;8.10;;;11.70;99.90;;;;;;5045529;28;20032;-56
2023/10/24 08:24:59;;;;;;;12.50;7.80;;;11.70;99.90;;;;;;5045868;28;20041;-56
2023/10/24 08:27:25;;;;;;;7.85;7.10;;;11.70;99.90;;;;;;5044795;28;20106;-56
2023/10/24 08:29:50;;;;;;;7.95;7.15;;;11.80;99.90;;;;;;5027301;28;20365;-55
2023/10/24 08:32:16;;;;;;;8.05;7.25;;;11.80;99.90;;;;;;5043361;28;20032;-55
2023/10/24 08:34:42;;;;;;;11.10;7.47;;;11.80;99.90;;;;;;5039963;28;20040;-55
2023/10/24 08:37:22;;;;;;;8.93;7.72;;;11.80;99.90;;;;;;5041470;28;20117;-52
2023/10/24 08:39:49;;;;;;;8.63;7.80;;;11.80;99.90;;;;;;5028213;28;20515;-54
2023/10/24 08:42:15;;;;;;;10.88;8.02;;;11.80;99.90;;;;;;5043026;28;20037;-54
2023/10/24 08:44:42;;;;;;;8.93;7.75;;;11.80;99.90;;;;;;5041118;28;20041;-55
2023/10/24 08:47:09;;;;;;;11.48;8.77;;;11.80;99.90;;;;;;5026935;28;20182;-56
2023/10/24 08:49:38;;;;;;;11.98;8.52;;;11.80;99.90;;;;;;5044351;28;20033;-57
2023/10/24 08:52:05;;;;;;;8.70;7.35;;;11.80;99.90;;;;;;5028785;28;20045;-54
2023/10/24 08:54:31;;;;;;;;;;;11.80;99.90;;;;;;5020677;28;20052;-55
2023/10/24 08:56:57;;;;;;;6.93;6.05;;;11.80;99.90;;;;;;5039997;28;19916;-56
2023/10/24 08:59:28;;;;;;;7.57;6.72;;;11.80;99.90;;;;;;5044947;28;20036;-56
2023/10/24 09:01:54;;;;;;;6.50;5.90;;;11.80;99.90;;;;;;5043857;28;20520;-56
2023/10/24 09:04:19;;;;;;;6.97;5.35;;;11.80;99.90;;;;;;5045777;28;20067;-55
2023/10/24 09:06:46;;;;;;;7.10;6.20;;;11.80;99.90;;;;;;5044910;28;20036;-55
2023/10/24 09:09:13;;;;;;;6.53;5.93;;;11.80;99.90;;;;;;5046988;28;20119;-56
2023/10/24 09:11:59;;;;;;;5.13;4.68;;;11.80;99.90;;;;;;5038183;28;20257;-54
2023/10/24 09:14:30;;;;;;;5.07;4.60;;;11.90;99.90;;;;;;5026518;28;20048;-55
2023/10/24 09:17:03;;;;;;;5.07;4.55;;;11.80;99.90;;;;;;5045271;28;20037;-56
2023/10/24 09:19:29;;;;;;;5.32;4.82;;;11.90;99.90;;;;;;5045383;28;20037;-56
2023/10/24 09:21:59;;;;;;;4.75;4.25;;;11.90;99.90;;;;;;5041604;28;20029;-55
2023/10/24 09:24:26;;;;;;;5.28;4.60;;;11.90;99.90;;;;;;5044095;28;20047;-55
2023/10/24 09:26:59;;;;;;;4.90;4.50;;;11.90;99.90;;;;;;5043935;28;20033;-55
2023/10/24 09:29:27;;;;;;;4.75;4.05;;;11.90;99.90;;;;;;5040977;28;20056;-54
2023/10/24 09:31:53;;;;;;;4.97;4.03;;;11.90;99.90;;;;;;5032288;28;20107;-56
2023/10/24 09:34:19;;;;;;;;;;;11.90;99.90;;;;;;5028633;28;20363;-56
2023/10/24 09:36:45;;;;;;;5.10;4.68;;;11.90;99.90;;;;;;5053404;28;19995;-55
2023/10/24 09:39:12;;;;;;;4.32;4.00;;;11.90;99.90;;;;;;5032756;28;20041;-53
2023/10/24 09:41:41;;;;;;;;;;;11.90;99.90;;;;;;5050362;28;20461;-56
2023/10/24 09:44:07;;;;;;;3.78;3.47;;;11.90;99.90;;;;;;5050257;28;19916;-55
2023/10/24 09:46:35;;;;;;;4.55;4.15;;;11.90;99.90;;;;;;5050218;28;20087;-53
2023/10/24 09:49:03;;;;;;;4.65;4.28;;;11.90;99.90;;;;;;5029183;28;20506;-57
2023/10/24 09:51:31;;;;;;;4.60;4.20;;;11.90;99.90;;;;;;5044118;28;20044;-56
2023/10/24 09:53:58;;;;;;;5.03;4.47;;;11.90;99.90;;;;;;5043394;28;20033;-53
2023/10/24 09:56:25;;;;;;;5.63;5.13;;;11.90;99.90;;;;;;5055321;28;20029;-53
2023/10/24 09:58:51;;;;;;;5.15;4.63;;;11.90;99.90;;;;;;5050690;28;20041;-53
2023/10/24 10:01:17;;;;;;;5.45;4.95;;;11.90;99.90;;;;;;5052418;28;20560;-54
2023/10/24 10:03:44;;;;;;;5.10;4.60;;;11.90;99.90;;;;;;5045058;28;20087;-54
2023/10/24 10:06:14;;;;;;;5.50;4.75;;;11.90;99.90;;;;;;5042138;28;20105;-53
2023/10/24 10:08:42;;;;;;;4.50;4.10;;;11.90;99.90;;;;;;5045093;28;20481;-54
2023/10/24 10:11:08;;;;;;;5.22;4.78;;;11.90;99.90;;;;;;5049637;28;20037;-55
2023/10/24 10:13:38;;;;;;;7.80;4.88;;;11.90;99.90;;;;;;5053119;28;20037;-52
2023/10/24 10:16:25;;;;;;;5.07;4.68;;;11.90;99.90;;;;;;5058524;28;20068;-54
2023/10/24 10:19:09;;;;;;;4.65;4.35;;;12.00;99.90;;;;;;5064479;28;20516;-55
2023/10/24 10:21:37;;;;;;;5.97;5.47;;;12.00;99.90;;;;;;5047885;28;20044;-55
2023/10/24 10:24:21;;;;;;;5.88;5.05;;;12.00;99.90;;;;;;5060294;28;20091;-55
2023/10/24 10:27:03;;;;;;;5.75;5.25;;;12.00;99.90;;;;;;5029681;28;20356;-53
2023/10/24 10:29:59;;;;;;;6.03;5.43;;;12.00;99.90;;;;;;5059683;28;20044;-54
2023/10/24 10:32:38;;;;;;;6.13;5.53;;;12.10;99.90;;;;;;5058280;28;20170;-54
2023/10/24 10:35:04;;;;;;;7.20;5.80;;;12.10;99.90;;;;;;5033590;28;20049;-51
2023/10/24 10:37:35;;;;;;;6.05;5.55;;;12.20;99.90;;;;;;5053166;28;20048;-55
2023/10/24 10:40:23;;;;;;;5.78;5.25;;;12.20;99.90;;;;;;5052082;28;20040;-53
2023/10/24 10:42:51;;;;;;;7.60;5.38;;;12.20;99.90;;;;;;5045739;28;20048;-56
2023/10/24 10:45:31;;;;;;;8.77;6.78;;;12.30;99.90;;;;;;5055836;28;20159;-53
2023/10/24 10:47:59;;;;;;;9.40;7.32;;;12.30;99.90;;;;;;5061621;28;20068;-53
2023/10/24 10:50:32;;;;;;;9.45;7.63;;;12.30;99.90;;;;;;5059642;28;20543;-53
2023/10/24 10:53:13;;;;;;;8.15;7.35;;;12.30;99.90;;;;;;5060252;28;20040;-55
2023/10/24 10:55:52;;;;;;;8.88;7.70;;;12.40;99.90;;;;;;5029208;28;20041;-55
2023/10/24 10:58:26;;;;;;;11.63;7.95;;;12.40;99.90;;;;;;5056612;28;20032;-53
2023/10/24 11:01:03;;;;;;;9.77;7.82;;;12.50;99.90;;;;;;5056138;28;20032;-54
2023/10/24 11:03:44;;;;;;;9.88;7.97;;;12.50;99.90;;;;;;5055979;28;20110;-52
2023/10/24 11:06:15;;;;;;;9.75;8.50;;;12.60;99.90;;;;;;5055812;28;20036;-58
2023/10/24 11:08:43;;;;;;;9.15;8.25;;;12.60;99.90;;;;;;5059150;28;20048;-53
2023/10/24 11:11:10;;;;;;;11.75;9.80;;;12.60;99.90;;;;;;5053669;28;20040;-51
2023/10/24 11:13:38;;;;;;;8.20;7.40;;;12.60;99.90;;;;;;5034035;28;20579;-55
2023/10/24 11:16:07;;;;;;;9.88;8.88;;;12.70;99.90;;;;;;5030091;28;20409;-56
2023/10/24 11:18:34;;;;;;;11.55;8.80;;;12.70;99.90;;;;;;5056695;28;20032;-54
2023/10/24 11:21:02;;;;;;;9.70;8.60;;;12.80;99.90;;;;;;5053743;28;20041;-54
2023/10/24 11:23:28;;;;;;;10.32;8.82;;;12.80;99.90;;;;;;5055677;28;20068;-55
2023/10/24 11:25:57;;;;;;;10.60;9.50;;;12.90;99.90;;;;;;5052523;28;20052;-55
2023/10/24 11:28:25;;;;;;;9.73;8.80;;;12.90;99.90;;;;;;5056500;28;20037;-53
2023/10/24 11:30:51;;;;;;;11.05;8.85;;;13.00;99.90;;;;;;5055247;28;20114;-54
2023/10/24 11:33:17;;;;;;;;;;;13.10;99.90;;;;;;5050322;28;20517;-51
2023/10/24 11:35:43;;;;;;;11.45;8.70;;;13.20;99.90;;;;;;5054723;28;19924;-55
2023/10/24 11:38:09;;;;;;;9.15;8.27;;;13.20;99.90;;;;;;5032353;28;20044;-55
2023/10/24 11:40:35;;;;;;;10.65;7.15;;;13.20;99.90;;;;;;5035331;28;20032;-56
2023/10/24 11:43:05;;;;;;;11.00;8.73;;;13.20;99.90;;;;;;5048746;28;20089;-53
2023/10/24 11:45:31;;;;;;;9.98;7.97;;;13.20;99.90;;;;;;5047241;28;20033;-54
2023/10/24 11:47:57;;;;;;;8.20;7.32;;;13.20;99.90;;;;;;5051901;28;20063;-53
2023/10/24 11:50:40;;;;;;;9.90;7.97;;;13.20;99.90;;;;;;5053563;28;20032;-55
2023/10/24 11:53:05;;;;;;;9.35;7.25;;;13.20;99.90;;;;;;5054191;28;20056;-54
2023/10/24 11:55:32;;;;;;;9.48;8.45;;;13.20;99.90;;;;;;5050482;28;20037;-53
2023/10/24 11:58:01;;;;;;;7.90;7.13;;;13.20;99.90;;;;;;5056321;28;21614;-52
2023/10/24 12:00:32;;;;;;;8.88;8.00;;;13.30;99.90;;;;;;5032128;28;20040;-53
2023/10/24 12:03:05;;;;;;;8.02;7.20;;;13.40;99.90;;;;;;5052767;28;20543;-56
2023/10/24 12:05:32;;;;;;;8.15;7.45;;;13.40;99.90;;;;;;5030456;28;20048;-53
2023/10/24 12:07:59;;;;;;;8.65;7.20;;;13.40;99.90;;;;;;5047228;28;20028;-55
2023/10/24 12:10:27;;;;;;;7.53;6.82;;;13.40;99.90;;;;;;5051055;28;20037;-55
2023/10/24 12:13:00;;;;;;;8.68;7.22;;;13.40;99.90;;;;;;5054948;28;20156;-56
2023/10/24 12:15:27;;;;;;;8.38;7.68;;;13.30;99.90;;;;;;5053003;28;20558;-55
2023/10/24 12:17:53;;;;;;;;;;;13.30;99.90;;;;;;5053338;28;20425;-53
2023/10/24 12:20:22;;;;;;;9.38;8.48;;;13.20;99.90;;;;;;5046006;28;19920;-52
2023/10/24 12:22:49;;;;;;;9.27;8.07;;;13.20;99.90;;;;;;5047605;28;20504;-52
2023/10/24 12:25:18;;;;;;;8.43;7.63;;;13.20;99.90;;;;;;5045868;28;20070;-51
2023/10/24 12:27:45;;;;;;;9.45;8.38;;;13.20;99.90;;;;;;5024436;28;20136;-54
2023/10/24 12:30:12;;;;;;;9.23;8.20;;;13.20;99.90;;;;;;5051226;28;20499;-55
2023/10/24 12:32:38;;;;;;;8.57;7.85;;;13.10;99.90;;;;;;5041650;28;20037;-55
2023/10/24 12:35:06;;;;;;;7.82;7.07;;;13.10;99.90;;;;;;5046200;28;20036;-53
2023/10/24 12:37:33;;;;;;;9.63;8.05;;;13.10;99.90;;;;;;5028112;28;20078;-52
2023/10/24 12:39:59;;;;;;;8.52;7.72;;;13.20;99.90;;;;;;5052688;28;20051;-55